KLTS/LTS METAR and TAF weather

Enter ICAO airport designator
Station Type Date Time Source
KLTS METAR 2021/09/16 20:56 UTC NOAA

KLTS 162056Z AUTO 17009KT 10SM FEW065 SCT080 33/17 A2986 RMK AO2 SLP096 T03270169 57022 $


Station Type Date Time Source
KLTS Decoded METAR 2021/09/16 20:56 UTC NOAA

Altus Air Force Base, OK, United States (KLTS) 34-39N 099-16W 420M
Sep 16, 2021 - 04:56 PM EDT / 2021.09.16 2056 UTC
Wind: from the S (170 degrees) at 10 MPH (9 KT):0
Visibility: 10 mile(s):0
Sky conditions: partly cloudy
Temperature: 90.9 F (32.7 C)
Dew Point: 62.4 F (16.9 C)
Relative Humidity: 38%
Pressure (altimeter): 29.86 in. Hg (1011 hPa)
Pressure tendency: 0.06 inches (2.2 hPa) lower than three hours ago
ob: KLTS 162056Z AUTO 17009KT 10SM FEW065 SCT080 33/17 A2986 RMK AO2 SLP096 T03270169 57022
cycle: 21

Station Type Date Time Source
KLTS TAF 2021/09/16 17:09 UTC NOAA

TAF TAF KLTS 161700Z 1617/1723 17010KT 9999 FEW100 QNH2986INS
BECMG 1617/1618 18012G18KT 9999 FEW030 FEW100 QNH2983INS
BECMG 1623/1624 17006KT 9999 FEW040 QNH2984INS TX33/1621Z TN18/1712Z

Example: see airport list